Aviation Digital Data Service (ADDS)

Output produced by METARs form (2135 UTC 01 December 2021)
found at http://aviationweather.gov/metar/data/
 
KHDC 011740Z 0118/0218 VRB04KT P6SM FEW250 
     FM020700 00000KT 1 1/2SM BR FEW150 
     FM020800 00000KT 1/4SM FG BKN001 
     FM021400 00000KT 1 1/2SM BR FEW003